createdAt,value
2023-04-14T00:00:18.145Z,9.2
2023-04-14T00:01:25.242Z,9.2
2023-04-14T00:02:32.345Z,9.2
2023-04-14T00:03:39.462Z,9.2
2023-04-14T00:04:46.572Z,9.2
2023-04-14T00:05:56.550Z,9.2
2023-04-14T00:07:03.681Z,8.9
2023-04-14T00:08:10.724Z,8.7
2023-04-14T00:09:17.835Z,8.7
2023-04-14T00:10:24.840Z,8.9
2023-04-14T00:11:35.524Z,8.9
2023-04-14T00:12:44.810Z,9
2023-04-14T00:13:53.626Z,9
2023-04-14T00:15:04.146Z,9
2023-04-14T00:16:11.428Z,9
2023-04-14T00:17:18.587Z,9
2023-04-14T00:18:25.684Z,9
2023-04-14T00:19:35.165Z,9
2023-04-14T00:20:42.165Z,9.1
2023-04-14T00:21:49.257Z,9.1
2023-04-14T00:22:56.324Z,9.1
2023-04-14T00:24:03.499Z,9.1
2023-04-14T00:25:10.560Z,9
2023-04-14T00:26:22.055Z,9.1
2023-04-14T00:27:32.098Z,9
2023-04-14T00:28:43.225Z,9.1
2023-04-14T00:29:50.543Z,9.1
2023-04-14T00:31:01.601Z,9.1
2023-04-14T00:32:09.322Z,9.1
2023-04-14T00:33:16.564Z,9.1
2023-04-14T00:34:23.679Z,9.2
2023-04-14T00:35:32.561Z,9.1
2023-04-14T00:36:39.615Z,9
2023-04-14T00:37:46.697Z,9
2023-04-14T00:38:53.882Z,9
2023-04-14T00:40:01.022Z,8.9
2023-04-14T00:41:08.429Z,8.8
2023-04-14T00:42:15.469Z,8.9
2023-04-14T00:43:22.476Z,8.9
2023-04-14T00:44:29.588Z,8.9
2023-04-14T00:45:36.773Z,9
2023-04-14T00:46:48.780Z,9
2023-04-14T00:47:55.938Z,8.9
2023-04-14T00:49:03.222Z,8.7
2023-04-14T00:50:10.028Z,8.8
2023-04-14T00:51:17.092Z,8.8
2023-04-14T00:52:25.054Z,8.6
2023-04-14T00:53:32.207Z,8.7
2023-04-14T00:54:39.323Z,8.8
2023-04-14T00:55:50.522Z,8.9
2023-04-14T00:56:57.563Z,8.8
2023-04-14T00:58:04.695Z,8.8
2023-04-14T00:59:12.054Z,8.8
2023-04-14T01:00:19.043Z,8.7
2023-04-14T01:01:26.214Z,8.7
2023-04-14T01:02:33.486Z,8.7
2023-04-14T01:03:44.555Z,8.5
2023-04-14T01:04:54.524Z,8.5
2023-04-14T01:05:58.612Z,8.6
2023-04-14T01:07:08.768Z,8.7
2023-04-14T01:08:15.819Z,8.7
2023-04-14T01:09:22.891Z,8.8
2023-04-14T01:10:30.043Z,8.9
2023-04-14T01:11:37.133Z,8.8
2023-04-14T01:12:50.048Z,8.9
2023-04-14T01:14:04.958Z,8.9
2023-04-14T01:15:17.810Z,8.9
2023-04-14T01:16:24.918Z,8.9
2023-04-14T01:17:35.153Z,9
2023-04-14T01:18:56.175Z,9
2023-04-14T01:20:13.435Z,9
2023-04-14T01:21:27.609Z,9
2023-04-14T01:22:34.688Z,9
2023-04-14T01:23:41.828Z,9
2023-04-14T01:24:51.681Z,9
2023-04-14T01:26:09.177Z,9.1
2023-04-14T01:27:19.045Z,9.1
2023-04-14T01:28:36.298Z,9.1
2023-04-14T01:29:53.758Z,9.1
2023-04-14T01:31:03.952Z,9
2023-04-14T01:32:16.115Z,9
2023-04-14T01:33:23.254Z,8.9
2023-04-14T01:34:31.266Z,8.9
2023-04-14T01:35:38.378Z,8.9
2023-04-14T01:36:50.978Z,9
2023-04-14T01:38:00.898Z,9
2023-04-14T01:39:08.087Z,9
2023-04-14T01:40:15.235Z,9.1
2023-04-14T01:41:22.313Z,9.1
2023-04-14T01:42:29.384Z,9.1
2023-04-14T01:43:36.598Z,9.1
2023-04-14T01:44:43.686Z,9.1
2023-04-14T01:45:50.755Z,9.1
2023-04-14T01:46:57.913Z,9.1
2023-04-14T01:48:05.241Z,9.1
2023-04-14T01:49:13.865Z,9.1
2023-04-14T01:50:21.086Z,9
2023-04-14T01:51:28.223Z,9
2023-04-14T01:52:39.065Z,9
2023-04-14T01:53:46.162Z,9
2023-04-14T01:54:53.345Z,9
2023-04-14T01:56:00.482Z,9.1
2023-04-14T01:57:07.737Z,9.1
2023-04-14T01:58:14.823Z,9.1
2023-04-14T01:59:21.931Z,9.1
2023-04-14T02:00:29.151Z,9
2023-04-14T02:01:36.338Z,9
2023-04-14T02:02:43.596Z,9
2023-04-14T02:03:50.684Z,9.1
2023-04-14T02:04:58.644Z,9
2023-04-14T02:06:05.786Z,9.1
2023-04-14T02:07:12.947Z,9.1
2023-04-14T02:08:20.094Z,9.1
2023-04-14T02:09:27.246Z,9.1
2023-04-14T02:10:38.586Z,9
2023-04-14T02:11:45.812Z,9.1
2023-04-14T02:12:52.889Z,9
2023-04-14T02:14:05.018Z,9
2023-04-14T02:15:16.596Z,9
2023-04-14T02:16:23.951Z,9
2023-04-14T02:17:34.400Z,8.9
2023-04-14T02:18:41.655Z,8.8
2023-04-14T02:19:48.823Z,8.9
2023-04-14T02:20:55.944Z,8.9
2023-04-14T02:22:03.096Z,8.9
2023-04-14T02:23:10.250Z,8.9
2023-04-14T02:24:17.378Z,8.9
2023-04-14T02:25:28.122Z,9
2023-04-14T02:26:37.406Z,9
2023-04-14T02:27:44.601Z,9
2023-04-14T02:28:56.837Z,9.1
2023-04-14T02:30:14.073Z,9.1
2023-04-14T02:31:21.412Z,9.1
2023-04-14T02:32:28.407Z,9.1
2023-04-14T02:33:38.254Z,9.1
2023-04-14T02:34:45.293Z,9.1
2023-04-14T02:36:02.214Z,9.1
2023-04-14T02:37:17.212Z,9
2023-04-14T02:38:24.364Z,9
2023-04-14T02:39:36.534Z,8.9
2023-04-14T02:40:43.760Z,8.9
2023-04-14T02:41:51.844Z,8.9
2023-04-14T02:43:04.886Z,8.9
2023-04-14T02:44:14.768Z,8.9
2023-04-14T02:45:25.594Z,8.9
2023-04-14T02:46:32.979Z,8.9
2023-04-14T02:47:43.076Z,9
2023-04-14T02:48:52.421Z,9
2023-04-14T02:50:02.400Z,9
2023-04-14T02:51:09.811Z,9
2023-04-14T02:52:17.380Z,8.9
2023-04-14T02:53:24.387Z,8.9
2023-04-14T02:54:31.325Z,9
2023-04-14T02:55:39.292Z,8.9
2023-04-14T02:56:46.336Z,9
2023-04-14T02:57:53.411Z,9
2023-04-14T02:59:00.603Z,9
2023-04-14T03:00:07.303Z,9
2023-04-14T03:01:14.482Z,9
2023-04-14T03:02:21.511Z,9
2023-04-14T03:03:28.585Z,9
2023-04-14T03:04:35.405Z,9
2023-04-14T03:05:43.149Z,9
2023-04-14T03:06:50.114Z,9
2023-04-14T03:07:57.086Z,9
2023-04-14T03:09:09.033Z,9
2023-04-14T03:10:15.967Z,9
2023-04-14T03:11:23.030Z,9
2023-04-14T03:12:29.966Z,9
2023-04-14T03:13:36.859Z,9
2023-04-14T03:14:43.788Z,9
2023-04-14T03:15:50.794Z,9
2023-04-14T03:16:57.747Z,8.9
2023-04-14T03:18:06.121Z,9
2023-04-14T03:19:13.048Z,9
2023-04-14T03:20:21.106Z,9
2023-04-14T03:21:28.052Z,9.1
2023-04-14T03:22:35.234Z,9.1
2023-04-14T03:23:46.649Z,9.1
2023-04-14T03:24:54.403Z,9.1
2023-04-14T03:26:04.411Z,9.1
2023-04-14T03:27:11.400Z,9.1
2023-04-14T03:28:18.408Z,9.2
2023-04-14T03:29:29.542Z,9.1
2023-04-14T03:30:36.519Z,9.1
2023-04-14T03:31:43.495Z,9.1
2023-04-14T03:32:50.457Z,8.9
2023-04-14T03:33:57.373Z,8.8
2023-04-14T03:35:08.572Z,8.9
2023-04-14T03:36:15.593Z,9
2023-04-14T03:37:22.592Z,9
2023-04-14T03:38:33.236Z,9.1
2023-04-14T03:39:44.290Z,9.1
2023-04-14T03:40:51.361Z,9.1
2023-04-14T03:41:58.366Z,9.1
2023-04-14T03:43:05.318Z,9.2
2023-04-14T03:44:12.244Z,9.1
2023-04-14T03:45:19.215Z,9.1
2023-04-14T03:46:26.215Z,9
2023-04-14T03:47:34.045Z,9.1
2023-04-14T03:48:41.026Z,9.1
2023-04-14T03:49:47.985Z,9.1
2023-04-14T03:50:55.039Z,9.2
2023-04-14T03:52:01.963Z,9.2
2023-04-14T03:53:09.092Z,9.2
2023-04-14T03:54:16.068Z,9.2
2023-04-14T03:55:22.970Z,9.2
2023-04-14T03:56:29.972Z,9.3
2023-04-14T03:57:40.231Z,9.2
2023-04-14T03:58:47.245Z,9.3
2023-04-14T03:59:55.567Z,9.2
2023-04-14T04:01:05.442Z,9.2
2023-04-14T04:02:12.490Z,9.1
2023-04-14T04:03:22.539Z,9.2
2023-04-14T04:04:29.534Z,9.2
2023-04-14T04:05:36.463Z,9.2
2023-04-14T04:06:43.413Z,9.3
2023-04-14T04:07:51.597Z,9.2
2023-04-14T04:08:58.815Z,9.3
2023-04-14T04:10:05.598Z,9.3
2023-04-14T04:11:12.608Z,9.3
2023-04-14T04:12:19.608Z,9.3
2023-04-14T04:13:26.502Z,9.3
2023-04-14T04:14:33.400Z,9.3
2023-04-14T04:15:40.302Z,9.3
2023-04-14T04:16:47.385Z,9.2
2023-04-14T04:17:54.317Z,9.2
2023-04-14T04:19:01.368Z,9.3
2023-04-14T04:20:08.182Z,9
2023-04-14T04:21:15.113Z,9.2
2023-04-14T04:22:22.144Z,9.3
2023-04-14T04:23:29.525Z,9.3
2023-04-14T04:24:36.521Z,9.3
2023-04-14T04:25:43.504Z,9.3
2023-04-14T04:26:51.811Z,9.4
2023-04-14T04:27:58.764Z,9.4
2023-04-14T04:29:05.788Z,9.4
2023-04-14T04:30:12.786Z,9.4
2023-04-14T04:31:20.543Z,9.3
2023-04-14T04:32:27.858Z,9.3
2023-04-14T04:33:34.670Z,9.3
2023-04-14T04:34:41.606Z,9.3
2023-04-14T04:35:48.570Z,9.4
2023-04-14T04:36:55.507Z,9.5
2023-04-14T04:38:05.270Z,9.5
2023-04-14T04:39:15.547Z,9.5
2023-04-14T04:40:22.497Z,9.5
2023-04-14T04:41:29.440Z,9.4
2023-04-14T04:42:39.259Z,9.4
2023-04-14T04:43:48.553Z,9.4
2023-04-14T04:44:55.726Z,9.4
2023-04-14T04:46:05.233Z,9.3
2023-04-14T04:47:14.895Z,9.3
2023-04-14T04:48:25.131Z,9.3
2023-04-14T04:49:32.130Z,9.4
2023-04-14T04:50:39.216Z,9.4
2023-04-14T04:51:46.203Z,9.4
2023-04-14T04:52:53.160Z,9.4
2023-04-14T04:54:00.143Z,9.4
2023-04-14T04:55:07.159Z,9.3
2023-04-14T04:56:14.183Z,9.2
2023-04-14T04:57:24.252Z,9.2
2023-04-14T04:58:34.933Z,9.2
2023-04-14T04:59:46.042Z,9.4
2023-04-14T05:00:52.998Z,9.3
2023-04-14T05:02:00.744Z,9.3
2023-04-14T05:03:07.691Z,9.1
2023-04-14T05:04:17.858Z,9.1
2023-04-14T05:05:26.218Z,9.2
2023-04-14T05:06:33.320Z,9.3
2023-04-14T05:07:43.227Z,9.2
2023-04-14T05:08:50.200Z,9.1
2023-04-14T05:09:57.528Z,9.1
2023-04-14T05:11:04.625Z,9.1
2023-04-14T05:12:11.628Z,9
2023-04-14T05:13:18.605Z,9.1
2023-04-14T05:14:27.365Z,9.2
2023-04-14T05:15:32.596Z,9.3
2023-04-14T05:16:39.548Z,9.3
2023-04-14T05:17:46.568Z,9.1
2023-04-14T05:19:01.491Z,9
2023-04-14T05:20:08.409Z,9
2023-04-14T05:21:15.615Z,9.1
2023-04-14T05:22:24.246Z,9.1
2023-04-14T05:23:35.040Z,9
2023-04-14T05:24:43.379Z,9.1
2023-04-14T05:25:53.055Z,9
2023-04-14T05:28:09.090Z,9.1
2023-04-14T05:29:16.097Z,9.2
2023-04-14T05:30:23.012Z,9.2
2023-04-14T05:31:30.094Z,9.3
2023-04-14T05:32:37.356Z,9.3
2023-04-14T05:33:45.202Z,9.3
2023-04-14T05:34:52.155Z,9.2
2023-04-14T05:35:59.070Z,9.3
2023-04-14T05:37:06.172Z,9.4
2023-04-14T05:38:13.227Z,9.4
2023-04-14T05:39:20.199Z,9.5
2023-04-14T05:40:27.227Z,9.6
2023-04-14T05:41:34.234Z,9.6
2023-04-14T05:42:41.240Z,9.7
2023-04-14T05:43:50.094Z,9.7
2023-04-14T05:44:57.115Z,9.6
2023-04-14T05:46:04.074Z,9.6
2023-04-14T05:47:11.004Z,9.5
2023-04-14T05:48:17.942Z,9.6
2023-04-14T05:49:24.849Z,9.6
2023-04-14T05:50:31.812Z,9.7
2023-04-14T05:51:38.790Z,9.5
2023-04-14T05:52:45.714Z,9.6
2023-04-14T05:53:52.683Z,9.6
2023-04-14T05:54:59.594Z,9.6
2023-04-14T05:56:10.217Z,9.6
2023-04-14T05:57:20.001Z,9.6
2023-04-14T05:58:27.954Z,9.7
2023-04-14T05:59:34.975Z,9.8
2023-04-14T06:00:41.928Z,9.7
2023-04-14T06:01:48.562Z,9.8
2023-04-14T06:02:59.840Z,9.6
2023-04-14T06:04:07.400Z,9.6
2023-04-14T06:06:20.463Z,9.5
2023-04-14T06:07:27.422Z,9.7
2023-04-14T06:08:34.452Z,9.8
2023-04-14T06:09:41.321Z,9.7
2023-04-14T06:10:48.221Z,9.7
2023-04-14T06:11:55.294Z,9.8
2023-04-14T06:13:06.642Z,9.6
2023-04-14T06:14:14.063Z,9.6
2023-04-14T06:15:23.367Z,9.7
2023-04-14T06:16:34.412Z,9.8
2023-04-14T06:17:45.106Z,9.9
2023-04-14T06:18:52.972Z,9.9
2023-04-14T06:19:59.901Z,9.9
2023-04-14T06:21:10.361Z,9.9
2023-04-14T06:22:17.363Z,9.9
2023-04-14T06:23:24.355Z,10
2023-04-14T06:24:31.301Z,10
2023-04-14T06:25:38.459Z,9.9
2023-04-14T06:26:45.498Z,9.8
2023-04-14T06:27:52.525Z,9.9
2023-04-14T06:29:00.065Z,9.9
2023-04-14T06:30:06.810Z,9.8
2023-04-14T06:31:14.022Z,9.7
2023-04-14T06:32:21.256Z,9.7
2023-04-14T06:33:27.989Z,9.7
2023-04-14T06:34:35.109Z,9.7
2023-04-14T06:35:42.494Z,9.6
2023-04-14T06:36:49.559Z,9.7
2023-04-14T06:37:56.650Z,9.7
2023-04-14T06:39:06.722Z,9.6
2023-04-14T06:40:19.020Z,9.6
2023-04-14T06:41:26.118Z,9.6
2023-04-14T06:42:33.042Z,9.7
2023-04-14T06:43:40.059Z,9.9
2023-04-14T06:44:48.176Z,9.8
2023-04-14T06:45:55.290Z,9.9
2023-04-14T06:47:02.178Z,9.9
2023-04-14T06:48:09.254Z,9.9
2023-04-14T06:49:16.170Z,10
2023-04-14T06:50:23.121Z,10.1
2023-04-14T06:51:31.035Z,10.1
2023-04-14T06:52:37.927Z,10
2023-04-14T06:53:44.963Z,9.8
2023-04-14T06:54:51.924Z,9.9
2023-04-14T06:55:59.202Z,10.1
2023-04-14T06:57:06.861Z,10.1
2023-04-14T06:58:15.005Z,10
2023-04-14T06:59:22.061Z,9.9
2023-04-14T07:00:29.013Z,10
2023-04-14T07:01:36.038Z,10.1
2023-04-14T07:02:43.058Z,10
2023-04-14T07:03:49.975Z,10.1
2023-04-14T07:04:56.928Z,10.1
2023-04-14T07:06:04.190Z,10
2023-04-14T07:07:12.242Z,10
2023-04-14T07:08:19.245Z,10
2023-04-14T07:09:27.251Z,10.2
2023-04-14T07:10:34.209Z,10.1
2023-04-14T07:11:41.109Z,10
2023-04-14T07:12:48.141Z,10.1
2023-04-14T07:13:55.129Z,10.2
2023-04-14T07:15:02.145Z,10.2
2023-04-14T07:16:09.606Z,10.3
2023-04-14T07:17:16.524Z,10.3
2023-04-14T07:18:23.530Z,10.4
2023-04-14T07:19:30.411Z,10.5
2023-04-14T07:20:37.360Z,10.5
2023-04-14T07:21:45.002Z,10.5
2023-04-14T07:22:54.905Z,10.3
2023-04-14T07:24:02.049Z,10.4
2023-04-14T07:25:12.889Z,10.4
2023-04-14T07:26:24.054Z,10.5
2023-04-14T07:27:32.043Z,10.5
2023-04-14T07:28:39.096Z,10.4
2023-04-14T07:29:46.095Z,10.4
2023-04-14T07:30:53.028Z,10.5
2023-04-14T07:31:59.971Z,10.3
2023-04-14T07:33:07.007Z,10.2
2023-04-14T07:34:14.061Z,10.2
2023-04-14T07:35:21.827Z,10
2023-04-14T07:36:29.375Z,10.2
2023-04-14T07:37:36.310Z,10.2
2023-04-14T07:38:43.386Z,10.3
2023-04-14T07:39:50.586Z,10.4
2023-04-14T07:40:57.558Z,10.4
2023-04-14T07:42:08.397Z,10.5
2023-04-14T07:43:15.895Z,10.4
2023-04-14T07:44:22.767Z,10.3
2023-04-14T07:45:29.774Z,10.4
2023-04-14T07:46:36.759Z,10.4
2023-04-14T07:47:43.684Z,10.4
2023-04-14T07:48:50.657Z,10.5
2023-04-14T07:49:57.614Z,10.5
2023-04-14T07:51:04.552Z,10.5
2023-04-14T07:52:11.462Z,10.5
2023-04-14T07:53:18.578Z,10.6
2023-04-14T07:54:28.361Z,10.6
2023-04-14T07:55:38.537Z,10.7
2023-04-14T07:56:45.606Z,10.7
2023-04-14T07:57:53.210Z,10.7
2023-04-14T07:59:00.586Z,10.6
2023-04-14T08:00:07.982Z,10.4
2023-04-14T08:01:16.039Z,10.5
2023-04-14T08:02:23.069Z,10.5
2023-04-14T08:03:30.091Z,10.5
2023-04-14T08:04:37.132Z,10.5
2023-04-14T08:05:48.569Z,10.6
2023-04-14T08:06:55.737Z,10.5
2023-04-14T08:08:02.718Z,10.5
2023-04-14T08:09:11.714Z,10.6
2023-04-14T08:10:18.651Z,10.7
2023-04-14T08:11:28.650Z,10.7
2023-04-14T08:12:35.650Z,10.7
2023-04-14T08:13:42.721Z,10.8
2023-04-14T08:14:50.912Z,10.8
2023-04-14T08:16:00.681Z,10.8
2023-04-14T08:17:07.623Z,10.8
2023-04-14T08:18:14.682Z,10.8
2023-04-14T08:19:21.619Z,10.8
2023-04-14T08:20:30.322Z,10.9
2023-04-14T08:21:37.264Z,10.9
2023-04-14T08:22:47.997Z,10.9
2023-04-14T08:23:55.104Z,10.8
2023-04-14T08:25:01.973Z,10.8
2023-04-14T08:26:08.930Z,10.9
2023-04-14T08:27:18.321Z,10.8
2023-04-14T08:28:25.274Z,10.9
2023-04-14T08:29:32.306Z,10.9
2023-04-14T08:30:39.495Z,11
2023-04-14T08:31:46.359Z,11
2023-04-14T08:32:53.135Z,11
2023-04-14T08:33:59.993Z,11
2023-04-14T08:35:36.434Z,10.8
2023-04-14T08:36:15.929Z,10.9
2023-04-14T08:37:25.129Z,11
2023-04-14T08:38:32.166Z,11
2023-04-14T08:39:39.038Z,11.1
2023-04-14T08:40:46.044Z,11.1
2023-04-14T08:41:54.902Z,11
2023-04-14T08:43:01.941Z,11.1
2023-04-14T08:44:11.339Z,11.1
2023-04-14T08:45:22.794Z,11.1
2023-04-14T08:46:29.767Z,11.1
2023-04-14T08:47:39.909Z,11.2
2023-04-14T08:48:47.003Z,11.1
2023-04-14T08:49:58.974Z,10.9
2023-04-14T08:51:11.333Z,10.9
2023-04-14T08:52:28.574Z,11
2023-04-14T08:53:36.553Z,11.1
2023-04-14T08:54:43.574Z,11.2
2023-04-14T08:55:53.248Z,11.1
2023-04-14T08:57:00.250Z,11.2
2023-04-14T08:58:08.362Z,11.1
2023-04-14T08:59:17.380Z,11.1
2023-04-14T09:00:24.409Z,11
2023-04-14T09:01:32.583Z,11.1
2023-04-14T09:02:38.440Z,11.2
2023-04-14T09:03:45.398Z,11.3
2023-04-14T09:04:56.925Z,11.2
2023-04-14T09:06:07.228Z,11.2
2023-04-14T09:07:15.259Z,11.2
2023-04-14T09:08:22.125Z,11
2023-04-14T09:09:30.089Z,10.9
2023-04-14T09:10:37.009Z,11
2023-04-14T09:11:47.101Z,11
2023-04-14T09:12:53.918Z,11.1
2023-04-14T09:14:01.056Z,10.8
2023-04-14T09:15:08.087Z,10.8
2023-04-14T09:16:19.391Z,10.9
2023-04-14T09:17:26.392Z,10.8
2023-04-14T09:18:34.376Z,10.9
2023-04-14T09:20:37.227Z,11
2023-04-14T09:21:29.502Z,11.1
2023-04-14T09:21:57.738Z,11.1
2023-04-14T09:23:06.446Z,11.1
2023-04-14T09:24:16.624Z,11.1
2023-04-14T09:25:23.516Z,11
2023-04-14T09:26:30.484Z,11.1
2023-04-14T09:27:37.629Z,11.2
2023-04-14T09:28:45.315Z,11.2
2023-04-14T09:29:52.247Z,11.2
2023-04-14T09:30:59.211Z,11.2
2023-04-14T09:32:06.155Z,11.2
2023-04-14T09:33:13.106Z,11.2
2023-04-14T09:34:29.250Z,11.1
2023-04-14T09:35:37.380Z,11.1
2023-04-14T09:36:47.063Z,11.1
2023-04-14T09:38:01.906Z,11.1
2023-04-14T09:39:08.840Z,11
2023-04-14T09:40:18.790Z,10.9
2023-04-14T09:41:33.038Z,11.2
2023-04-14T09:42:40.023Z,11.2
2023-04-14T09:43:49.608Z,11.4
2023-04-14T09:44:56.480Z,11.2
2023-04-14T09:46:03.406Z,11.3
2023-04-14T09:47:10.285Z,11.4
2023-04-14T09:48:17.243Z,11.3
2023-04-14T09:49:24.181Z,11.4
2023-04-14T09:50:32.541Z,11.4
2023-04-14T09:51:49.221Z,11.4
2023-04-14T09:52:56.309Z,11.2
2023-04-14T09:54:06.796Z,11.3
2023-04-14T09:55:13.166Z,11.6
2023-04-14T09:56:21.228Z,11.8
2023-04-14T09:57:32.164Z,11.9
2023-04-14T09:58:39.159Z,12
2023-04-14T09:59:46.038Z,12.3
2023-04-14T10:00:53.016Z,12.3
2023-04-14T10:02:00.101Z,12.5
2023-04-14T10:03:07.063Z,12.5
2023-04-14T10:04:13.905Z,12.7
2023-04-14T10:05:26.850Z,12.8
2023-04-14T10:06:34.828Z,13
2023-04-14T10:07:41.841Z,13
2023-04-14T10:08:53.627Z,13
2023-04-14T10:10:00.641Z,13.2
2023-04-14T10:11:10.537Z,13.4
2023-04-14T10:12:20.365Z,13.4
2023-04-14T10:13:27.733Z,13.4
2023-04-14T10:14:34.766Z,13.2
2023-04-14T10:15:47.246Z,13.3
2023-04-14T10:16:54.201Z,13.3
2023-04-14T10:18:01.254Z,13.4
2023-04-14T10:19:08.241Z,13.2
2023-04-14T10:20:15.177Z,13.4
2023-04-14T10:21:22.197Z,13.4
2023-04-14T10:22:29.692Z,13.2
2023-04-14T10:23:39.336Z,13.4
2023-04-14T10:24:46.318Z,13.3
2023-04-14T10:25:53.296Z,13.4
2023-04-14T10:27:01.013Z,13.4
2023-04-14T10:28:07.961Z,13.4
2023-04-14T10:29:15.559Z,13.5
2023-04-14T10:30:23.384Z,13.6
2023-04-14T10:31:30.365Z,13.5
2023-04-14T10:32:45.417Z,13.5
2023-04-14T10:33:52.248Z,13.6
2023-04-14T10:35:02.702Z,13.7
2023-04-14T10:36:14.361Z,13.6
2023-04-14T10:37:27.221Z,13.8
2023-04-14T10:38:34.113Z,13.9
2023-04-14T10:39:40.997Z,14.1
2023-04-14T10:40:47.792Z,14.1
2023-04-14T10:41:54.678Z,14.1
2023-04-14T10:43:01.548Z,14.1
2023-04-14T10:44:08.346Z,14
2023-04-14T10:45:25.402Z,14
2023-04-14T10:46:32.902Z,14
2023-04-14T10:47:47.343Z,14.2
2023-04-14T10:48:54.203Z,14.2
2023-04-14T10:50:01.131Z,14.4
2023-04-14T10:51:13.093Z,14.4
2023-04-14T10:52:19.971Z,14.4
2023-04-14T10:53:29.406Z,14.5
2023-04-14T10:54:41.367Z,14.3
2023-04-14T10:55:55.984Z,14.3
2023-04-14T10:57:02.801Z,14.5
2023-04-14T10:58:15.374Z,14.5
2023-04-14T10:59:22.251Z,14.4
2023-04-14T11:00:29.066Z,14.5
2023-04-14T11:01:36.088Z,14.6
2023-04-14T11:02:42.924Z,14.8
2023-04-14T11:03:55.200Z,14.8
2023-04-14T11:05:03.452Z,14.8
2023-04-14T11:06:10.795Z,14.6
2023-04-14T11:07:17.948Z,14.6
2023-04-14T11:08:24.803Z,14.7
2023-04-14T11:09:31.685Z,14.6
2023-04-14T11:10:41.585Z,14.6
2023-04-14T11:11:51.664Z,14.8
2023-04-14T11:12:58.565Z,14.8
2023-04-14T11:14:05.468Z,14.8
2023-04-14T11:15:15.146Z,14.9
2023-04-14T11:16:22.043Z,14.9
2023-04-14T11:17:32.133Z,14.9
2023-04-14T11:18:43.423Z,15
2023-04-14T11:19:49.271Z,15.1
2023-04-14T11:20:56.112Z,15
2023-04-14T11:22:08.884Z,15
2023-04-14T11:23:15.807Z,15.1
2023-04-14T11:24:22.747Z,14.9
2023-04-14T11:25:29.623Z,15
2023-04-14T11:26:36.533Z,14.8
2023-04-14T11:27:43.339Z,14.9
2023-04-14T11:28:50.164Z,15
2023-04-14T11:29:57.870Z,14.9
2023-04-14T11:31:04.840Z,14.8
2023-04-14T11:32:11.866Z,14.8
2023-04-14T11:33:18.800Z,14.9
2023-04-14T11:34:25.536Z,15
2023-04-14T11:35:33.535Z,15
2023-04-14T11:36:40.495Z,15
2023-04-14T11:37:47.407Z,15
2023-04-14T11:38:57.009Z,15
2023-04-14T11:40:06.676Z,15.1
2023-04-14T11:41:14.607Z,15
2023-04-14T11:42:22.422Z,15.1
2023-04-14T11:43:29.263Z,15
2023-04-14T11:44:36.382Z,15
2023-04-14T11:45:43.496Z,14.9
2023-04-14T11:46:50.389Z,15
2023-04-14T11:47:58.418Z,15
2023-04-14T11:49:05.265Z,15.1
2023-04-14T11:50:12.147Z,15.1
2023-04-14T11:51:19.123Z,15.1
2023-04-14T11:52:31.044Z,15.1
2023-04-14T11:53:38.001Z,15.2
2023-04-14T11:54:44.884Z,15.1
2023-04-14T11:55:52.861Z,15.1
2023-04-14T11:56:59.769Z,15.1
2023-04-14T11:58:06.655Z,15.1
2023-04-14T11:59:13.672Z,15.1
2023-04-14T12:00:20.721Z,15
2023-04-14T12:01:30.585Z,15
2023-04-14T12:02:38.661Z,14.9
2023-04-14T12:03:45.410Z,14.9
2023-04-14T12:04:52.647Z,14.9
2023-04-14T12:05:59.327Z,15
2023-04-14T12:07:06.289Z,15.1
2023-04-14T12:08:13.137Z,15.1
2023-04-14T12:09:20.004Z,15.1
2023-04-14T12:10:28.625Z,15.1
2023-04-14T12:11:35.521Z,15.2
2023-04-14T12:12:42.406Z,15.1
2023-04-14T12:13:49.347Z,15.2
2023-04-14T12:14:56.191Z,15.3
2023-04-14T12:16:07.708Z,15.4
2023-04-14T12:17:15.688Z,15.4
2023-04-14T12:18:22.951Z,15.4
2023-04-14T12:19:30.087Z,15.4
2023-04-14T12:20:37.026Z,15.5
2023-04-14T12:21:49.008Z,15.4
2023-04-14T12:22:55.868Z,15.5
2023-04-14T12:24:05.637Z,15.6
2023-04-14T12:25:12.651Z,15.5
2023-04-14T12:26:19.675Z,15.6
2023-04-14T12:27:26.690Z,15.6
2023-04-14T12:28:35.260Z,15.4
2023-04-14T12:29:45.192Z,15.5
2023-04-14T12:30:53.143Z,15.4
2023-04-14T12:32:00.481Z,15.4
2023-04-14T12:33:14.994Z,15.4
2023-04-14T12:34:23.093Z,15.5
2023-04-14T12:35:30.029Z,15.5
2023-04-14T12:36:49.383Z,15.4
2023-04-14T12:37:43.797Z,15.5
2023-04-14T12:38:51.431Z,15.6
2023-04-14T12:39:58.411Z,15.5
2023-04-14T12:41:05.277Z,15.5
2023-04-14T12:42:12.243Z,15.5
2023-04-14T12:43:21.818Z,15.5
2023-04-14T12:44:38.439Z,15.4
2023-04-14T12:45:45.951Z,15.5
2023-04-14T12:46:53.622Z,15.5
2023-04-14T12:48:06.906Z,15.5
2023-04-14T12:49:16.550Z,15.5
2023-04-14T12:50:33.642Z,15.6
2023-04-14T12:51:41.543Z,15.7
2023-04-14T12:52:48.776Z,15.6
2023-04-14T12:53:55.719Z,15.6
2023-04-14T12:55:02.734Z,15.6
2023-04-14T12:56:14.214Z,15.7
2023-04-14T12:57:21.124Z,15.7
2023-04-14T12:58:31.342Z,15.7
2023-04-14T12:59:38.633Z,15.8
2023-04-14T13:00:45.566Z,15.8
2023-04-14T13:01:52.511Z,15.8
2023-04-14T13:03:02.099Z,15.8
2023-04-14T13:04:09.046Z,15.8
2023-04-14T13:05:17.245Z,15.8
2023-04-14T13:06:24.234Z,15.9
2023-04-14T13:07:31.407Z,15.9
2023-04-14T13:08:38.344Z,15.9
2023-04-14T13:09:45.315Z,15.9
2023-04-14T13:10:54.818Z,15.9
2023-04-14T13:12:02.620Z,15.8
2023-04-14T13:13:09.527Z,15.8
2023-04-14T13:14:16.432Z,15.9
2023-04-14T13:15:57.363Z,15.9
2023-04-14T13:16:36.097Z,15.8
2023-04-14T13:17:45.897Z,15.8
2023-04-14T13:18:59.514Z,15.8
2023-04-14T13:20:07.432Z,15.8
2023-04-14T13:21:15.222Z,15.8
2023-04-14T13:22:22.334Z,15.8
2023-04-14T13:23:30.314Z,15.9
2023-04-14T13:24:37.362Z,15.8
2023-04-14T13:25:45.359Z,15.7
2023-04-14T13:26:55.850Z,15.6
2023-04-14T13:28:14.207Z,15.4
2023-04-14T13:29:23.489Z,15.5
2023-04-14T13:30:32.809Z,15.6
2023-04-14T13:31:39.865Z,15.6
2023-04-14T13:32:46.800Z,15.6
2023-04-14T13:33:55.786Z,15.6
2023-04-14T13:35:02.726Z,15.6
2023-04-14T13:36:09.896Z,15.5
2023-04-14T13:37:18.626Z,15.6
2023-04-14T13:38:25.576Z,15.5
2023-04-14T13:39:32.389Z,15.5
2023-04-14T13:40:39.232Z,15.6
2023-04-14T13:41:46.097Z,15.5
2023-04-14T13:42:53.108Z,15.5
2023-04-14T13:44:00.201Z,15.5
2023-04-14T13:45:08.364Z,15.4
2023-04-14T13:46:16.599Z,15.5
2023-04-14T13:47:22.493Z,15.5
2023-04-14T13:48:31.938Z,15.5
2023-04-14T13:49:39.690Z,15.5
2023-04-14T13:50:46.996Z,15.5
2023-04-14T13:51:54.026Z,15.5
2023-04-14T13:53:02.057Z,15.4
2023-04-14T13:54:08.973Z,15.4
2023-04-14T13:55:20.052Z,15.4
2023-04-14T13:56:28.997Z,15.4
2023-04-14T13:57:37.033Z,15.4
2023-04-14T13:58:43.955Z,15.4
2023-04-14T13:59:50.857Z,15.3
2023-04-14T14:00:57.869Z,15.3
2023-04-14T14:02:04.975Z,15.2
2023-04-14T14:03:11.914Z,15.3
2023-04-14T14:04:18.781Z,15.3
2023-04-14T14:05:25.575Z,15.3
2023-04-14T14:06:32.455Z,15.3
2023-04-14T14:07:41.124Z,15.4
2023-04-14T14:08:48.133Z,15.2
2023-04-14T14:10:06.234Z,15.3
2023-04-14T14:11:13.436Z,15.3
2023-04-14T14:12:21.090Z,15.3
2023-04-14T14:13:30.350Z,15.3
2023-04-14T14:14:40.655Z,15.3
2023-04-14T14:15:49.452Z,15.3
2023-04-14T14:16:56.440Z,15.3
2023-04-14T14:18:03.310Z,15.3
2023-04-14T14:19:11.151Z,15.3
2023-04-14T14:20:22.324Z,15.3
2023-04-14T14:21:29.418Z,15.2
2023-04-14T14:22:36.315Z,15.2
2023-04-14T14:23:43.280Z,15.1
2023-04-14T14:24:50.197Z,15.2
2023-04-14T14:26:00.665Z,15.2
2023-04-14T14:27:07.698Z,15.3
2023-04-14T14:28:14.517Z,15.3
2023-04-14T14:29:23.556Z,15.2
2023-04-14T14:30:31.264Z,15.3
2023-04-14T14:31:42.214Z,15.2
2023-04-14T14:32:49.945Z,15.3
2023-04-14T14:33:58.309Z,15.2
2023-04-14T14:35:06.154Z,15.2
2023-04-14T14:36:13.176Z,15.1
2023-04-14T14:37:20.109Z,15.2
2023-04-14T14:38:26.976Z,15.2
2023-04-14T14:39:33.742Z,15.3
2023-04-14T14:40:41.566Z,15.3
2023-04-14T14:41:51.046Z,15.2
2023-04-14T14:42:58.792Z,15.2
2023-04-14T14:44:07.474Z,15.2
2023-04-14T14:45:14.346Z,15.3
2023-04-14T14:46:21.192Z,15.2
2023-04-14T14:47:28.040Z,15.2
2023-04-14T14:48:34.911Z,15.2
2023-04-14T14:49:52.892Z,15.2
2023-04-14T14:50:48.764Z,15.2
2023-04-14T14:51:55.618Z,15.1
2023-04-14T14:53:02.357Z,15.1
2023-04-14T14:54:10.418Z,15
2023-04-14T14:55:16.838Z,14.9
2023-04-14T14:56:25.586Z,14.9
2023-04-14T14:57:32.402Z,14.8
2023-04-14T14:58:39.297Z,14.7
2023-04-14T14:59:46.213Z,14.7
2023-04-14T15:00:53.128Z,14.8
2023-04-14T15:02:00.092Z,14.8
2023-04-14T15:03:07.877Z,14.8
2023-04-14T15:04:14.683Z,14.7
2023-04-14T15:05:21.514Z,14.7
2023-04-14T15:06:28.399Z,14.7
2023-04-14T15:07:35.226Z,14.8
2023-04-14T15:08:42.057Z,14.7
2023-04-14T15:09:48.965Z,14.5
2023-04-14T15:10:57.334Z,14.5
2023-04-14T15:12:04.228Z,14.6
2023-04-14T15:13:11.201Z,14.5
2023-04-14T15:14:18.088Z,14.6
2023-04-14T15:15:24.935Z,14.6
2023-04-14T15:16:31.777Z,14.5
2023-04-14T15:17:39.786Z,14.6
2023-04-14T15:18:46.576Z,14.5
2023-04-14T15:19:53.526Z,14.5
2023-04-14T15:21:00.428Z,14.4
2023-04-14T15:22:07.333Z,14.3
2023-04-14T15:23:14.175Z,14.3
2023-04-14T15:24:20.968Z,14.2
2023-04-14T15:25:27.904Z,14.3
2023-04-14T15:26:34.917Z,14.3
2023-04-14T15:27:41.754Z,14.2
2023-04-14T15:28:48.621Z,14.3
2023-04-14T15:29:55.452Z,14.3
2023-04-14T15:31:02.388Z,14.3
2023-04-14T15:32:09.368Z,14.2